createdAt,value
2024-01-15T00:02:20.083Z,27.27
2024-01-15T00:04:49.930Z,27.31
2024-01-15T00:07:20.910Z,27.42
2024-01-15T00:09:52.446Z,27.40
2024-01-15T00:12:23.080Z,27.45
2024-01-15T00:14:53.944Z,27.51
2024-01-15T00:17:24.240Z,27.45
2024-01-15T00:19:55.204Z,27.51
2024-01-15T00:22:28.687Z,27.48
2024-01-15T00:24:58.597Z,27.67
2024-01-15T00:27:28.714Z,27.71
2024-01-15T00:29:58.610Z,27.84
2024-01-15T00:32:28.727Z,27.99
2024-01-15T00:34:58.670Z,28.06
2024-01-15T00:37:28.427Z,28.07
2024-01-15T00:39:59.267Z,28.19
2024-01-15T00:42:29.317Z,28.29
2024-01-15T00:44:59.152Z,28.47
2024-01-15T00:47:29.219Z,28.53
2024-01-15T00:50:01.422Z,28.56
2024-01-15T00:52:31.268Z,28.53
2024-01-15T00:55:01.388Z,28.65
2024-01-15T00:57:33.425Z,28.74
2024-01-15T01:00:06.531Z,28.87
2024-01-15T01:02:37.361Z,28.88
2024-01-15T01:05:07.657Z,28.96
2024-01-15T01:07:37.900Z,28.98
2024-01-15T01:10:08.960Z,28.99
2024-01-15T01:12:41.652Z,29.02
2024-01-15T01:15:11.682Z,29.06
2024-01-15T01:17:41.470Z,29.13
2024-01-15T01:20:14.158Z,29.19
2024-01-15T01:22:45.180Z,29.22
2024-01-15T01:25:15.361Z,29.32
2024-01-15T01:27:45.483Z,29.28
2024-01-15T01:30:15.769Z,29.32
2024-01-15T01:32:45.869Z,29.43
2024-01-15T01:35:16.185Z,29.49
2024-01-15T01:37:46.805Z,29.52
2024-01-15T01:40:17.156Z,29.45
2024-01-15T01:42:47.445Z,29.51
2024-01-15T01:45:17.790Z,29.43
2024-01-15T01:47:47.808Z,29.46
2024-01-15T01:50:17.904Z,29.51
2024-01-15T01:52:51.164Z,29.61
2024-01-15T01:55:21.809Z,29.62
2024-01-15T01:57:51.790Z,29.63
2024-01-15T02:00:22.028Z,29.64
2024-01-15T02:02:54.853Z,29.67
2024-01-15T02:05:24.864Z,29.81
2024-01-15T02:07:54.961Z,29.84
2024-01-15T02:10:25.776Z,29.88
2024-01-15T02:12:56.495Z,29.92
2024-01-15T02:15:26.774Z,30.00
2024-01-15T02:18:01.242Z,29.98
2024-01-15T02:20:31.413Z,29.94
2024-01-15T02:23:14.661Z,30.00
2024-01-15T02:25:53.430Z,30.08
2024-01-15T02:28:23.262Z,30.09
2024-01-15T02:30:53.479Z,30.06
2024-01-15T02:33:27.541Z,30.08
2024-01-15T02:35:57.597Z,30.08
2024-01-15T02:38:27.583Z,30.11
2024-01-15T02:40:57.670Z,30.16
2024-01-15T02:43:27.641Z,30.08
2024-01-15T02:45:57.392Z,30.06
2024-01-15T02:48:27.466Z,30.12
2024-01-15T02:50:57.469Z,30.18
2024-01-15T02:53:27.410Z,30.14
2024-01-15T02:55:57.396Z,30.22
2024-01-15T02:58:27.521Z,30.25
2024-01-15T03:00:57.617Z,30.34
2024-01-15T03:03:28.012Z,30.39
2024-01-15T03:05:58.142Z,30.43
2024-01-15T03:08:28.390Z,30.39
2024-01-15T03:10:59.268Z,30.47
2024-01-15T03:13:30.148Z,30.44
2024-01-15T03:16:00.733Z,30.48
2024-01-15T03:18:30.886Z,30.45
2024-01-15T03:21:03.408Z,30.53
2024-01-15T03:23:33.301Z,30.54
2024-01-15T03:26:03.617Z,30.53
2024-01-15T03:28:33.551Z,30.60
2024-01-15T03:31:03.479Z,30.62
2024-01-15T03:33:34.079Z,30.65
2024-01-15T03:36:13.047Z,30.66
2024-01-15T03:38:44.327Z,30.65
2024-01-15T03:41:14.506Z,30.73
2024-01-15T03:43:45.186Z,30.70
2024-01-15T03:46:15.010Z,30.63
2024-01-15T03:48:44.905Z,30.64
2024-01-15T03:51:14.951Z,30.61
2024-01-15T03:53:44.857Z,30.61
2024-01-15T03:56:14.892Z,30.68
2024-01-15T03:58:44.793Z,30.68
2024-01-15T04:01:14.941Z,30.68
2024-01-15T04:03:47.921Z,30.78
2024-01-15T04:06:18.143Z,30.85
2024-01-15T04:08:48.076Z,30.93
2024-01-15T04:11:18.053Z,31.05
2024-01-15T04:13:48.141Z,31.12
2024-01-15T04:16:18.317Z,31.20
2024-01-15T04:18:52.173Z,31.18
2024-01-15T04:21:22.450Z,31.19
2024-01-15T04:23:53.281Z,31.18
2024-01-15T04:26:23.712Z,31.16
2024-01-15T04:28:53.699Z,31.19
2024-01-15T04:31:29.459Z,31.32
2024-01-15T04:33:59.655Z,31.32
2024-01-15T04:36:29.961Z,31.28
2024-01-15T04:39:00.011Z,31.29
2024-01-15T04:41:38.769Z,31.29
2024-01-15T04:44:08.771Z,31.27
2024-01-15T04:46:38.573Z,31.28
2024-01-15T04:49:08.594Z,31.28
2024-01-15T04:51:38.682Z,31.28
2024-01-15T04:54:08.722Z,31.33
2024-01-15T04:56:38.405Z,31.33
2024-01-15T04:59:08.750Z,31.31
2024-01-15T05:01:38.424Z,31.31
2024-01-15T05:04:10.045Z,31.35
2024-01-15T05:06:40.054Z,31.42
2024-01-15T05:09:18.006Z,31.46
2024-01-15T05:11:48.202Z,31.51
2024-01-15T05:14:18.162Z,31.56
2024-01-15T05:16:52.680Z,31.54
2024-01-15T05:19:22.792Z,31.56
2024-01-15T05:21:53.339Z,31.64
2024-01-15T05:24:23.715Z,31.73
2024-01-15T05:26:54.753Z,31.76
2024-01-15T05:29:25.193Z,31.69
2024-01-15T05:31:55.748Z,31.77
2024-01-15T05:34:28.721Z,31.81
2024-01-15T05:36:58.856Z,31.91
2024-01-15T05:39:28.998Z,32.01
2024-01-15T05:42:01.581Z,31.98
2024-01-15T05:44:31.533Z,32.03
2024-01-15T05:47:02.058Z,32.00
2024-01-15T05:49:32.476Z,32.06
2024-01-15T05:52:05.163Z,32.17
2024-01-15T05:54:35.118Z,32.13
2024-01-15T05:57:06.468Z,32.05
2024-01-15T05:59:38.298Z,32.04
2024-01-15T06:02:17.116Z,32.02
2024-01-15T06:04:47.813Z,31.98
2024-01-15T06:07:17.616Z,31.92
2024-01-15T06:09:47.328Z,31.90
2024-01-15T06:12:17.322Z,31.83
2024-01-15T06:14:47.422Z,31.90
2024-01-15T06:17:18.030Z,31.85
2024-01-15T06:19:47.947Z,31.88
2024-01-15T06:22:17.907Z,31.84
2024-01-15T06:24:48.641Z,31.80
2024-01-15T06:27:18.759Z,31.90
2024-01-15T06:29:50.865Z,31.90
2024-01-15T06:32:21.380Z,31.90
2024-01-15T06:34:52.077Z,31.80
2024-01-15T06:37:22.501Z,31.82
2024-01-15T06:39:52.606Z,31.86
2024-01-15T06:42:24.113Z,31.74
2024-01-15T06:44:54.098Z,31.81
2024-01-15T06:47:24.142Z,31.80
2024-01-15T06:49:54.571Z,31.84
2024-01-15T06:52:24.646Z,31.87
2024-01-15T06:54:54.422Z,31.91
2024-01-15T06:57:24.506Z,32.06
2024-01-15T06:59:54.471Z,32.04
2024-01-15T07:02:24.471Z,31.98
2024-01-15T07:04:54.811Z,31.96
2024-01-15T07:07:24.790Z,31.99
2024-01-15T07:09:54.725Z,32.00
2024-01-15T07:12:25.350Z,31.88
2024-01-15T07:14:55.204Z,31.93
2024-01-15T07:17:25.630Z,31.95
2024-01-15T07:19:55.685Z,31.86
2024-01-15T07:22:25.629Z,31.83
2024-01-15T07:24:56.697Z,31.81
2024-01-15T07:27:27.335Z,31.76
2024-01-15T07:30:00.040Z,31.72
2024-01-15T07:32:40.215Z,31.72
2024-01-15T07:35:10.503Z,31.73
2024-01-15T07:37:40.580Z,31.72
2024-01-15T07:40:11.217Z,31.69
2024-01-15T07:42:41.550Z,31.74
2024-01-15T07:45:13.104Z,31.76
2024-01-15T07:47:43.554Z,31.76
2024-01-15T07:50:14.023Z,31.73
2024-01-15T07:52:46.706Z,31.77
2024-01-15T07:55:17.145Z,31.79
2024-01-15T07:57:53.378Z,31.74
2024-01-15T08:00:28.803Z,31.77
2024-01-15T08:02:59.069Z,31.78
2024-01-15T08:05:30.263Z,31.81
2024-01-15T08:08:02.240Z,31.83
2024-01-15T08:10:32.792Z,31.74
2024-01-15T08:13:02.790Z,31.72
2024-01-15T08:15:32.704Z,31.66
2024-01-15T08:18:02.587Z,31.69
2024-01-15T08:20:35.168Z,31.67
2024-01-15T08:23:05.449Z,31.69
2024-01-15T08:25:35.564Z,31.71
2024-01-15T08:28:07.370Z,31.66
2024-01-15T08:30:38.292Z,31.68
2024-01-15T08:33:18.441Z,31.70
2024-01-15T08:35:51.586Z,31.71
2024-01-15T08:38:22.508Z,31.73
2024-01-15T08:40:53.228Z,31.80
2024-01-15T08:43:23.154Z,31.77
2024-01-15T08:45:53.285Z,31.77
2024-01-15T08:48:23.510Z,31.72
2024-01-15T08:50:53.580Z,31.64
2024-01-15T08:53:23.959Z,31.61
2024-01-15T08:55:54.366Z,31.53
2024-01-15T08:58:27.220Z,31.52
2024-01-15T09:00:57.528Z,31.49
2024-01-15T09:03:28.056Z,31.44
2024-01-15T09:05:58.336Z,31.43
2024-01-15T09:08:47.429Z,31.34
2024-01-15T09:11:17.623Z,31.32
2024-01-15T09:13:47.540Z,31.28
2024-01-15T09:16:18.111Z,31.26
2024-01-15T09:18:49.183Z,31.22
2024-01-15T09:21:19.217Z,31.17
2024-01-15T09:23:49.045Z,31.16
2024-01-15T09:26:18.903Z,31.08
2024-01-15T09:28:49.047Z,31.16
2024-01-15T09:31:22.658Z,31.02
2024-01-15T09:33:58.323Z,31.01
2024-01-15T09:36:29.309Z,30.98
2024-01-15T09:39:01.969Z,30.96
2024-01-15T09:41:32.025Z,30.95
2024-01-15T09:44:01.992Z,30.93
2024-01-15T09:46:32.902Z,30.93
2024-01-15T09:49:04.217Z,30.89
2024-01-15T09:51:35.779Z,30.91
2024-01-15T09:54:06.203Z,30.86
2024-01-15T09:56:36.455Z,30.84
2024-01-15T09:59:06.809Z,30.79
2024-01-15T10:01:39.455Z,30.79
2024-01-15T10:04:09.868Z,30.78
2024-01-15T10:06:41.541Z,30.74
2024-01-15T10:09:16.639Z,30.71
2024-01-15T10:11:47.290Z,30.68
2024-01-15T10:14:17.464Z,30.72
2024-01-15T10:16:57.587Z,30.64
2024-01-15T10:19:27.775Z,30.65
2024-01-15T10:21:58.530Z,30.60
2024-01-15T10:24:30.727Z,30.60
2024-01-15T10:27:13.822Z,30.60
2024-01-15T10:29:45.180Z,30.63
2024-01-15T10:32:15.207Z,30.60
2024-01-15T10:34:45.377Z,30.57
2024-01-15T10:37:17.532Z,30.50
2024-01-15T10:39:49.536Z,30.52
2024-01-15T10:42:22.859Z,30.48
2024-01-15T10:44:55.253Z,30.49
2024-01-15T10:47:25.961Z,30.45
2024-01-15T10:49:56.307Z,30.43
2024-01-15T10:52:26.500Z,30.41
2024-01-15T10:54:57.007Z,30.44
2024-01-15T10:57:29.182Z,30.40
2024-01-15T11:00:00.772Z,30.39
2024-01-15T11:02:31.585Z,30.35
2024-01-15T11:05:02.082Z,30.35
2024-01-15T11:07:35.380Z,30.35
2024-01-15T11:10:10.692Z,30.30
2024-01-15T11:12:44.663Z,30.35
2024-01-15T11:15:23.176Z,30.33
2024-01-15T11:18:07.710Z,30.30
2024-01-15T11:21:19.077Z,30.32
2024-01-15T11:24:00.552Z,30.26
2024-01-15T11:26:36.915Z,30.25
2024-01-15T11:29:09.106Z,30.25
2024-01-15T11:31:42.234Z,30.24
2024-01-15T11:34:14.375Z,30.23
2024-01-15T11:36:56.593Z,30.22
2024-01-15T11:39:30.045Z,30.13
2024-01-15T11:42:01.911Z,30.19
2024-01-15T11:44:32.826Z,30.16
2024-01-15T11:47:07.939Z,30.19
2024-01-15T11:49:59.866Z,30.21
2024-01-15T11:52:35.630Z,30.16
2024-01-15T11:55:41.068Z,30.18
2024-01-15T11:58:12.193Z,30.17
2024-01-15T12:00:51.649Z,30.13
2024-01-15T12:03:27.952Z,30.12
2024-01-15T12:05:58.018Z,30.09
2024-01-15T12:08:30.197Z,30.09
2024-01-15T12:11:02.339Z,30.09
2024-01-15T12:13:32.822Z,30.11
2024-01-15T12:16:06.286Z,30.10
2024-01-15T12:18:37.210Z,30.11
2024-01-15T12:21:08.282Z,30.14
2024-01-15T12:23:51.349Z,30.13
2024-01-15T12:26:21.821Z,30.13
2024-01-15T12:28:55.538Z,30.12
2024-01-15T12:31:27.118Z,30.09
2024-01-15T12:33:58.903Z,30.09
2024-01-15T12:36:29.426Z,30.07
2024-01-15T12:39:02.507Z,30.10
2024-01-15T12:41:37.489Z,30.05
2024-01-15T12:44:07.651Z,30.07
2024-01-15T12:46:40.153Z,30.05
2024-01-15T12:49:11.586Z,30.06
2024-01-15T12:51:43.251Z,30.01
2024-01-15T12:54:14.256Z,30.02
2024-01-15T12:56:44.199Z,30.03
2024-01-15T12:59:18.387Z,30.03
2024-01-15T13:01:49.191Z,29.97
2024-01-15T13:04:26.676Z,29.97
2024-01-15T13:06:56.973Z,29.93
2024-01-15T13:09:27.103Z,30.00
2024-01-15T13:11:57.175Z,29.98
2024-01-15T13:14:28.014Z,29.95
2024-01-15T13:16:59.027Z,29.95
2024-01-15T13:19:29.872Z,29.97
2024-01-15T13:22:02.429Z,29.89
2024-01-15T13:24:32.521Z,29.89
2024-01-15T13:27:02.544Z,29.92
2024-01-15T13:29:32.503Z,29.95
2024-01-15T13:32:04.806Z,29.92
2024-01-15T13:34:35.776Z,29.97
2024-01-15T13:37:08.410Z,29.94
2024-01-15T13:39:38.916Z,29.94
2024-01-15T13:42:08.875Z,29.89
2024-01-15T13:44:38.863Z,29.86
2024-01-15T13:47:08.861Z,29.83
2024-01-15T13:49:40.785Z,29.82
2024-01-15T13:52:10.763Z,29.80
2024-01-15T13:54:48.431Z,29.77
2024-01-15T13:57:29.655Z,29.74
2024-01-15T14:00:00.343Z,29.77
2024-01-15T14:02:30.423Z,29.75
2024-01-15T14:05:00.910Z,29.69
2024-01-15T14:07:33.863Z,29.73
2024-01-15T14:10:20.440Z,29.69
2024-01-15T14:12:50.911Z,29.73
2024-01-15T14:15:25.577Z,29.69
2024-01-15T14:17:55.579Z,29.64
2024-01-15T14:20:25.297Z,29.65
2024-01-15T14:22:55.395Z,29.58
2024-01-15T14:25:29.045Z,29.61
2024-01-15T14:27:58.908Z,29.57
2024-01-15T14:30:28.934Z,29.65
2024-01-15T14:33:01.965Z,29.62
2024-01-15T14:35:31.991Z,29.66
2024-01-15T14:38:20.567Z,29.71
2024-01-15T14:40:51.381Z,29.66
2024-01-15T14:43:22.071Z,29.66
2024-01-15T14:45:52.040Z,29.61
2024-01-15T14:48:22.060Z,29.66
2024-01-15T14:50:52.744Z,29.66
2024-01-15T14:53:23.451Z,29.66
2024-01-15T14:55:56.694Z,29.61
2024-01-15T14:58:26.766Z,29.64
2024-01-15T15:00:58.175Z,29.65
2024-01-15T15:03:28.530Z,29.65
2024-01-15T15:05:59.064Z,29.65
2024-01-15T15:08:29.023Z,29.56
2024-01-15T15:10:59.231Z,29.52
2024-01-15T15:13:38.007Z,29.52
2024-01-15T15:16:15.669Z,29.47
2024-01-15T15:18:48.265Z,29.44
2024-01-15T15:21:18.725Z,29.37
2024-01-15T15:23:54.916Z,29.41
2024-01-15T15:26:24.835Z,29.37
2024-01-15T15:28:55.788Z,29.37
2024-01-15T15:31:27.620Z,29.33
2024-01-15T15:33:57.645Z,29.33
2024-01-15T15:36:28.355Z,29.28
2024-01-15T15:39:00.388Z,29.25
2024-01-15T15:41:30.602Z,29.28
2024-01-15T15:44:00.423Z,29.23
2024-01-15T15:46:30.608Z,29.23
2024-01-15T15:49:03.117Z,29.23
2024-01-15T15:51:35.373Z,29.23
2024-01-15T15:54:07.355Z,29.23
2024-01-15T15:56:42.271Z,29.22
2024-01-15T15:59:12.074Z,29.17
2024-01-15T16:01:44.481Z,29.17
2024-01-15T16:04:14.751Z,29.17
2024-01-15T16:06:45.117Z,29.16
2024-01-15T16:09:18.269Z,29.12
2024-01-15T16:11:48.963Z,29.13
2024-01-15T16:14:19.919Z,29.11
2024-01-15T16:23:13.055Z,29.13
2024-01-15T16:23:26.622Z,29.06
2024-01-15T16:23:42.381Z,29.08
2024-01-15T16:25:25.381Z,29.08
2024-01-15T16:27:55.440Z,29.05
2024-01-15T16:30:30.328Z,29.02
2024-01-15T16:33:07.417Z,29.04
2024-01-15T16:35:38.239Z,29.00
2024-01-15T16:38:08.567Z,29.03
2024-01-15T16:40:40.221Z,28.95
2024-01-15T16:43:11.157Z,28.97
2024-01-15T16:45:41.787Z,28.97
2024-01-15T16:48:11.937Z,28.96
2024-01-15T16:50:42.305Z,28.93
2024-01-15T16:53:12.214Z,28.88
2024-01-15T16:55:42.181Z,28.82
2024-01-15T16:58:12.057Z,28.80
2024-01-15T17:00:41.860Z,28.77
2024-01-15T17:03:11.757Z,28.66
2024-01-15T17:05:43.321Z,28.51
2024-01-15T17:08:13.631Z,28.38
2024-01-15T17:10:43.587Z,28.45
2024-01-15T17:13:13.882Z,28.42
2024-01-15T17:15:43.917Z,28.38
2024-01-15T17:18:13.993Z,28.32
2024-01-15T17:20:47.913Z,28.35
2024-01-15T17:23:17.955Z,28.30
2024-01-15T17:25:47.832Z,28.40
2024-01-15T17:28:17.524Z,28.30
2024-01-15T17:30:48.858Z,28.31
2024-01-15T17:33:23.252Z,28.27
2024-01-15T17:35:54.925Z,28.33
2024-01-15T17:38:27.904Z,28.38
2024-01-15T17:40:57.816Z,28.29
2024-01-15T17:43:28.336Z,28.26
2024-01-15T17:46:02.708Z,28.31
2024-01-15T17:48:37.186Z,28.23
2024-01-15T17:51:08.128Z,28.26
2024-01-15T17:53:37.956Z,28.53
2024-01-15T17:56:07.859Z,28.40
2024-01-15T17:58:37.738Z,28.48
2024-01-15T18:01:10.130Z,28.48
2024-01-15T18:03:41.415Z,28.57
2024-01-15T18:06:13.731Z,28.53
2024-01-15T18:08:43.904Z,28.46
2024-01-15T18:11:21.092Z,28.53
2024-01-15T18:13:51.524Z,28.53
2024-01-15T18:16:27.523Z,28.59
2024-01-15T18:18:58.231Z,28.46
2024-01-15T18:21:28.916Z,28.46
2024-01-15T18:23:58.790Z,28.51
2024-01-15T18:26:30.895Z,28.48
2024-01-15T18:29:01.118Z,28.60
2024-01-15T18:31:32.026Z,28.52
2024-01-15T18:34:02.284Z,28.52
2024-01-15T18:36:32.371Z,28.49
2024-01-15T18:39:07.963Z,28.54
2024-01-15T18:41:38.352Z,28.47
2024-01-15T18:44:09.164Z,28.44
2024-01-15T18:46:39.762Z,28.52
2024-01-15T18:49:20.285Z,28.59
2024-01-15T18:51:54.468Z,28.54
2024-01-15T18:54:25.145Z,28.56
2024-01-15T18:56:55.349Z,28.40
2024-01-15T18:59:26.233Z,28.52
2024-01-15T19:01:56.071Z,28.38
2024-01-15T19:04:26.807Z,28.38
2024-01-15T19:06:56.616Z,28.33
2024-01-15T19:09:27.937Z,28.37
2024-01-15T19:11:58.008Z,28.29
2024-01-15T19:14:28.681Z,28.36
2024-01-15T19:16:59.652Z,28.40
2024-01-15T19:19:30.680Z,28.32
2024-01-15T19:22:00.625Z,28.33
2024-01-15T19:24:30.510Z,28.29
2024-01-15T19:27:00.482Z,28.28
2024-01-15T19:29:33.703Z,28.32
2024-01-15T19:32:05.201Z,28.33
2024-01-15T19:34:35.353Z,28.37
2024-01-15T19:37:06.574Z,28.25
2024-01-15T19:39:36.445Z,28.27
2024-01-15T19:42:06.599Z,28.25
2024-01-15T19:44:36.472Z,28.20
2024-01-15T19:47:06.369Z,28.18
2024-01-15T19:49:36.406Z,28.22
2024-01-15T19:52:07.062Z,28.22
2024-01-15T19:54:37.683Z,28.17
2024-01-15T19:57:16.241Z,28.14
2024-01-15T19:59:46.231Z,28.14
2024-01-15T20:02:16.329Z,28.19
2024-01-15T20:04:46.646Z,28.16
2024-01-15T20:07:16.464Z,28.13
2024-01-15T20:09:48.206Z,28.16
2024-01-15T20:12:18.407Z,28.09
2024-01-15T20:14:48.235Z,28.20
2024-01-15T20:17:21.836Z,28.25
2024-01-15T20:19:52.392Z,28.17
2024-01-15T20:22:22.401Z,28.10
2024-01-15T20:24:53.242Z,28.19
2024-01-15T20:27:23.814Z,28.10
2024-01-15T20:29:53.976Z,28.13
2024-01-15T20:32:26.760Z,28.17
2024-01-15T20:34:56.884Z,28.14
2024-01-15T20:37:26.894Z,28.09
2024-01-15T20:39:56.933Z,28.25
2024-01-15T20:42:28.080Z,28.09
2024-01-15T20:44:58.176Z,28.17
2024-01-15T20:47:28.264Z,28.12
2024-01-15T20:49:58.170Z,28.21
2024-01-15T20:52:28.576Z,28.11
2024-01-15T20:54:58.269Z,28.07
2024-01-15T20:57:28.065Z,28.11
2024-01-15T20:59:57.969Z,28.00
2024-01-15T21:02:27.987Z,28.00
2024-01-15T21:04:57.971Z,28.10
2024-01-15T21:07:29.883Z,28.07
2024-01-15T21:09:59.689Z,28.06
2024-01-15T21:12:29.604Z,28.11
2024-01-15T21:14:59.445Z,28.15
2024-01-15T21:17:29.382Z,28.09
2024-01-15T21:20:00.676Z,28.12
2024-01-15T21:22:30.853Z,28.09
2024-01-15T21:25:00.621Z,28.11
2024-01-15T21:27:31.095Z,28.13
2024-01-15T21:30:01.504Z,28.08
2024-01-15T21:32:31.451Z,28.10
2024-01-15T21:35:03.053Z,28.03
2024-01-15T21:37:33.309Z,28.13
2024-01-15T21:40:05.150Z,28.07
2024-01-15T21:42:46.438Z,28.06
2024-01-15T21:45:16.644Z,28.03
2024-01-15T21:47:46.442Z,28.08
2024-01-15T21:50:16.571Z,28.01
2024-01-15T21:52:51.525Z,28.12
2024-01-15T21:55:24.062Z,28.06
2024-01-15T21:57:54.623Z,28.08
2024-01-15T22:00:24.433Z,28.07
2024-01-15T22:02:55.156Z,28.01
2024-01-15T22:05:25.176Z,27.94
2024-01-15T22:07:55.092Z,27.93
2024-01-15T22:10:25.004Z,28.02
2024-01-15T22:12:54.891Z,27.81
2024-01-15T22:15:25.310Z,27.97
2024-01-15T22:17:57.633Z,27.86
2024-01-15T22:20:27.621Z,27.94
2024-01-15T22:22:59.998Z,27.92
2024-01-15T22:25:30.157Z,27.95
2024-01-15T22:28:00.241Z,27.97
2024-01-15T22:30:31.852Z,27.94
2024-01-15T22:33:02.801Z,27.91
2024-01-15T22:35:33.332Z,27.97
2024-01-15T22:38:03.288Z,27.88
2024-01-15T22:40:36.210Z,27.93
2024-01-15T22:43:06.520Z,28.05
2024-01-15T22:45:37.319Z,28.00
2024-01-15T22:48:08.124Z,27.95
2024-01-15T22:50:41.151Z,27.98
2024-01-15T22:53:11.625Z,28.06
2024-01-15T22:55:41.714Z,28.04
2024-01-15T22:58:11.384Z,27.95
2024-01-15T23:00:45.868Z,27.97
2024-01-15T23:03:16.273Z,27.97
2024-01-15T23:05:46.551Z,28.12
2024-01-15T23:08:16.737Z,28.04
2024-01-15T23:10:50.168Z,27.93
2024-01-15T23:13:20.283Z,28.10
2024-01-15T23:15:52.852Z,27.99
2024-01-15T23:18:22.827Z,27.82
2024-01-15T23:20:52.825Z,27.93
2024-01-15T23:23:22.704Z,27.99
2024-01-15T23:25:52.539Z,27.97
2024-01-15T23:28:22.452Z,27.89
2024-01-15T23:30:52.367Z,27.87
2024-01-15T23:33:22.688Z,27.91
2024-01-15T23:35:55.154Z,27.97
2024-01-15T23:38:26.590Z,27.99
2024-01-15T23:40:58.239Z,27.76
2024-01-15T23:43:28.440Z,27.84
2024-01-15T23:46:10.066Z,27.91
2024-01-15T23:48:44.410Z,27.95
2024-01-15T23:51:14.478Z,27.98
2024-01-15T23:53:44.796Z,27.98
2024-01-15T23:56:16.208Z,28.00
2024-01-15T23:58:46.997Z,28.01
